sensor_id;sensor_type;location;lat;lon;timestamp;temperature;humidity
37972;DHT22;23794;48.234;8.344;2022-09-09T00:00:21;13.70;99.90
37972;DHT22;23794;48.234;8.344;2022-09-09T00:02:55;13.70;99.90
37972;DHT22;23794;48.234;8.344;2022-09-09T00:05:31;13.70;99.90
37972;DHT22;23794;48.234;8.344;2022-09-09T00:08:02;13.70;99.90
37972;DHT22;23794;48.234;8.344;2022-09-09T00:10:38;13.80;99.90
37972;DHT22;23794;48.234;8.344;2022-09-09T00:13:42;13.80;99.90
37972;DHT22;23794;48.234;8.344;2022-09-09T00:16:24;13.90;99.90
37972;DHT22;23794;48.234;8.344;2022-09-09T00:19:07;13.90;99.90
37972;DHT22;23794;48.234;8.344;2022-09-09T00:21:43;13.80;99.90
37972;DHT22;23794;48.234;8.344;2022-09-09T00:24:29;13.70;99.90
37972;DHT22;23794;48.234;8.344;2022-09-09T00:27:06;13.60;99.90
37972;DHT22;23794;48.234;8.344;2022-09-09T00:32:19;13.60;99.90
37972;DHT22;23794;48.234;8.344;2022-09-09T00:35:02;13.60;99.90
37972;DHT22;23794;48.234;8.344;2022-09-09T00:37:31;13.60;99.90
37972;DHT22;23794;48.234;8.344;2022-09-09T00:40:00;13.60;99.90
37972;DHT22;23794;48.234;8.344;2022-09-09T00:42:42;13.60;99.90
37972;DHT22;23794;48.234;8.344;2022-09-09T00:45:54;13.60;99.90
37972;DHT22;23794;48.234;8.344;2022-09-09T00:48:29;13.50;99.90
37972;DHT22;23794;48.234;8.344;2022-09-09T00:51:08;13.50;99.90
37972;DHT22;23794;48.234;8.344;2022-09-09T00:57:07;13.50;99.90
37972;DHT22;23794;48.234;8.344;2022-09-09T00:59:58;13.40;99.90
37972;DHT22;23794;48.234;8.344;2022-09-09T01:02:28;13.40;99.90
37972;DHT22;23794;48.234;8.344;2022-09-09T01:05:11;13.40;99.90
37972;DHT22;23794;48.234;8.344;2022-09-09T01:07:44;13.40;99.90
37972;DHT22;23794;48.234;8.344;2022-09-09T01:10:25;13.40;99.90
37972;DHT22;23794;48.234;8.344;2022-09-09T01:12:53;13.40;99.90
37972;DHT22;23794;48.234;8.344;2022-09-09T01:15:28;13.50;99.90
37972;DHT22;23794;48.234;8.344;2022-09-09T01:17:58;13.40;99.90
37972;DHT22;23794;48.234;8.344;2022-09-09T01:20:39;13.30;99.90
37972;DHT22;23794;48.234;8.344;2022-09-09T01:23:16;13.40;99.90
37972;DHT22;23794;48.234;8.344;2022-09-09T01:28:50;13.50;99.90
37972;DHT22;23794;48.234;8.344;2022-09-09T01:32:02;13.50;99.90
37972;DHT22;23794;48.234;8.344;2022-09-09T01:34:36;13.60;99.90
37972;DHT22;23794;48.234;8.344;2022-09-09T01:37:07;13.50;99.90
37972;DHT22;23794;48.234;8.344;2022-09-09T01:39:38;13.50;99.90
37972;DHT22;23794;48.234;8.344;2022-09-09T01:42:11;13.60;99.90
37972;DHT22;23794;48.234;8.344;2022-09-09T01:44:39;13.70;99.90
37972;DHT22;23794;48.234;8.344;2022-09-09T01:47:07;13.70;99.90
37972;DHT22;23794;48.234;8.344;2022-09-09T01:49:40;13.70;99.90
37972;DHT22;23794;48.234;8.344;2022-09-09T01:52:16;13.70;99.90
37972;DHT22;23794;48.234;8.344;2022-09-09T01:54:43;13.80;99.90
37972;DHT22;23794;48.234;8.344;2022-09-09T02:00:11;13.90;99.90
37972;DHT22;23794;48.234;8.344;2022-09-09T02:05:41;13.90;99.90
37972;DHT22;23794;48.234;8.344;2022-09-09T02:11:05;13.90;99.90
37972;DHT22;23794;48.234;8.344;2022-09-09T02:14:09;14.00;99.90
37972;DHT22;23794;48.234;8.344;2022-09-09T02:16:56;14.10;99.90
37972;DHT22;23794;48.234;8.344;2022-09-09T02:19:37;14.10;99.90
37972;DHT22;23794;48.234;8.344;2022-09-09T02:22:22;14.20;99.90
37972;DHT22;23794;48.234;8.344;2022-09-09T02:24:53;14.30;99.90
37972;DHT22;23794;48.234;8.344;2022-09-09T02:27:25;14.10;99.90
37972;DHT22;23794;48.234;8.344;2022-09-09T02:29:53;14.20;99.90
37972;DHT22;23794;48.234;8.344;2022-09-09T02:32:34;14.20;99.90
37972;DHT22;23794;48.234;8.344;2022-09-09T02:35:08;14.20;99.90
37972;DHT22;23794;48.234;8.344;2022-09-09T02:37:39;14.10;99.90
37972;DHT22;23794;48.234;8.344;2022-09-09T02:40:08;14.10;99.90
37972;DHT22;23794;48.234;8.344;2022-09-09T02:42:45;14.00;99.90
37972;DHT22;23794;48.234;8.344;2022-09-09T02:45:18;14.00;99.90
37972;DHT22;23794;48.234;8.344;2022-09-09T02:48:14;14.00;99.90
37972;DHT22;23794;48.234;8.344;2022-09-09T02:51:06;13.90;99.90
37972;DHT22;23794;48.234;8.344;2022-09-09T02:53:44;13.80;99.90
37972;DHT22;23794;48.234;8.344;2022-09-09T02:56:17;13.80;99.90
37972;DHT22;23794;48.234;8.344;2022-09-09T02:58:47;13.80;99.90
37972;DHT22;23794;48.234;8.344;2022-09-09T03:01:14;13.80;99.90
37972;DHT22;23794;48.234;8.344;2022-09-09T03:03:41;13.60;99.90
37972;DHT22;23794;48.234;8.344;2022-09-09T03:06:13;13.50;99.90
37972;DHT22;23794;48.234;8.344;2022-09-09T03:08:41;13.30;99.90
37972;DHT22;23794;48.234;8.344;2022-09-09T03:11:17;13.20;99.90
37972;DHT22;23794;48.234;8.344;2022-09-09T03:13:44;13.30;99.90
37972;DHT22;23794;48.234;8.344;2022-09-09T03:16:11;13.30;99.90
37972;DHT22;23794;48.234;8.344;2022-09-09T03:18:43;13.40;99.90
37972;DHT22;23794;48.234;8.344;2022-09-09T03:21:11;13.40;99.90
37972;DHT22;23794;48.234;8.344;2022-09-09T03:23:39;13.40;99.90
37972;DHT22;23794;48.234;8.344;2022-09-09T03:26:07;13.30;99.90
37972;DHT22;23794;48.234;8.344;2022-09-09T03:28:40;13.40;99.90
37972;DHT22;23794;48.234;8.344;2022-09-09T03:31:08;13.50;99.90
37972;DHT22;23794;48.234;8.344;2022-09-09T03:33:39;13.50;99.90
37972;DHT22;23794;48.234;8.344;2022-09-09T03:36:10;13.40;99.90
37972;DHT22;23794;48.234;8.344;2022-09-09T03:38:37;13.20;99.90
37972;DHT22;23794;48.234;8.344;2022-09-09T03:41:05;13.20;99.90
37972;DHT22;23794;48.234;8.344;2022-09-09T03:43:32;13.30;99.90
37972;DHT22;23794;48.234;8.344;2022-09-09T03:46:00;13.30;99.90
37972;DHT22;23794;48.234;8.344;2022-09-09T03:48:28;13.30;99.90
37972;DHT22;23794;48.234;8.344;2022-09-09T03:50:56;13.30;99.90
37972;DHT22;23794;48.234;8.344;2022-09-09T03:53:24;13.20;99.90
37972;DHT22;23794;48.234;8.344;2022-09-09T03:55:53;13.20;99.90
37972;DHT22;23794;48.234;8.344;2022-09-09T03:58:27;13.20;99.90
37972;DHT22;23794;48.234;8.344;2022-09-09T04:01:06;12.90;99.90
37972;DHT22;23794;48.234;8.344;2022-09-09T04:03:36;13.00;99.90
37972;DHT22;23794;48.234;8.344;2022-09-09T04:06:04;13.10;99.90
37972;DHT22;23794;48.234;8.344;2022-09-09T04:08:33;13.10;99.90
37972;DHT22;23794;48.234;8.344;2022-09-09T04:11:01;13.10;99.90
37972;DHT22;23794;48.234;8.344;2022-09-09T04:13:34;13.00;99.90
37972;DHT22;23794;48.234;8.344;2022-09-09T04:16:03;13.00;99.90
37972;DHT22;23794;48.234;8.344;2022-09-09T04:18:32;13.00;99.90
37972;DHT22;23794;48.234;8.344;2022-09-09T04:21:00;13.00;99.90
37972;DHT22;23794;48.234;8.344;2022-09-09T04:23:31;13.00;99.90
37972;DHT22;23794;48.234;8.344;2022-09-09T04:25:59;13.10;99.90
37972;DHT22;23794;48.234;8.344;2022-09-09T04:28:29;13.00;99.90
37972;DHT22;23794;48.234;8.344;2022-09-09T04:31:04;13.00;99.90
37972;DHT22;23794;48.234;8.344;2022-09-09T04:33:32;12.70;99.90
37972;DHT22;23794;48.234;8.344;2022-09-09T04:36:06;12.70;99.90
37972;DHT22;23794;48.234;8.344;2022-09-09T04:38:34;12.70;99.90
37972;DHT22;23794;48.234;8.344;2022-09-09T04:41:02;12.60;99.90
37972;DHT22;23794;48.234;8.344;2022-09-09T04:43:30;12.70;99.90
37972;DHT22;23794;48.234;8.344;2022-09-09T04:45:58;12.80;99.90
37972;DHT22;23794;48.234;8.344;2022-09-09T04:48:29;12.60;99.90
37972;DHT22;23794;48.234;8.344;2022-09-09T04:50:59;12.70;99.90
37972;DHT22;23794;48.234;8.344;2022-09-09T04:53:28;12.80;99.90
37972;DHT22;23794;48.234;8.344;2022-09-09T04:58:32;12.50;99.90
37972;DHT22;23794;48.234;8.344;2022-09-09T05:01:06;12.60;99.90
37972;DHT22;23794;48.234;8.344;2022-09-09T05:03:35;12.70;99.90
37972;DHT22;23794;48.234;8.344;2022-09-09T05:06:12;12.70;99.90
37972;DHT22;23794;48.234;8.344;2022-09-09T05:08:41;12.80;99.90
37972;DHT22;23794;48.234;8.344;2022-09-09T05:11:19;12.70;99.90
37972;DHT22;23794;48.234;8.344;2022-09-09T05:13:46;12.70;99.90
37972;DHT22;23794;48.234;8.344;2022-09-09T05:16:14;12.80;99.90
37972;DHT22;23794;48.234;8.344;2022-09-09T05:18:42;12.90;99.90
37972;DHT22;23794;48.234;8.344;2022-09-09T05:21:10;12.90;99.90
37972;DHT22;23794;48.234;8.344;2022-09-09T05:23:37;13.00;99.90
37972;DHT22;23794;48.234;8.344;2022-09-09T05:26:05;13.10;99.90
37972;DHT22;23794;48.234;8.344;2022-09-09T05:28:36;13.10;99.90
37972;DHT22;23794;48.234;8.344;2022-09-09T05:31:06;13.20;99.90
37972;DHT22;23794;48.234;8.344;2022-09-09T05:33:36;13.30;99.90
37972;DHT22;23794;48.234;8.344;2022-09-09T05:36:08;13.30;99.90
37972;DHT22;23794;48.234;8.344;2022-09-09T05:38:35;13.10;99.90
37972;DHT22;23794;48.234;8.344;2022-09-09T05:41:03;13.00;99.90
37972;DHT22;23794;48.234;8.344;2022-09-09T05:43:30;13.20;99.90
37972;DHT22;23794;48.234;8.344;2022-09-09T05:46:07;13.40;99.90
37972;DHT22;23794;48.234;8.344;2022-09-09T05:48:37;13.50;99.90
37972;DHT22;23794;48.234;8.344;2022-09-09T05:51:09;13.60;99.90
37972;DHT22;23794;48.234;8.344;2022-09-09T05:53:40;13.60;99.90
37972;DHT22;23794;48.234;8.344;2022-09-09T05:58:44;13.70;99.90
37972;DHT22;23794;48.234;8.344;2022-09-09T06:01:13;13.60;99.90
37972;DHT22;23794;48.234;8.344;2022-09-09T06:03:43;13.60;99.90
37972;DHT22;23794;48.234;8.344;2022-09-09T06:06:15;13.40;99.90
37972;DHT22;23794;48.234;8.344;2022-09-09T06:08:44;13.50;99.90
37972;DHT22;23794;48.234;8.344;2022-09-09T06:11:19;13.60;99.90
37972;DHT22;23794;48.234;8.344;2022-09-09T06:13:46;13.70;99.90
37972;DHT22;23794;48.234;8.344;2022-09-09T06:16:16;13.90;99.90
37972;DHT22;23794;48.234;8.344;2022-09-09T06:18:45;14.00;99.90
37972;DHT22;23794;48.234;8.344;2022-09-09T06:21:16;14.20;99.90
37972;DHT22;23794;48.234;8.344;2022-09-09T06:23:44;14.30;99.90
37972;DHT22;23794;48.234;8.344;2022-09-09T06:26:17;14.40;99.90
37972;DHT22;23794;48.234;8.344;2022-09-09T06:28:46;14.50;99.90
37972;DHT22;23794;48.234;8.344;2022-09-09T06:31:18;14.50;99.90
37972;DHT22;23794;48.234;8.344;2022-09-09T06:33:54;14.60;99.90
37972;DHT22;23794;48.234;8.344;2022-09-09T06:36:28;14.70;99.90
37972;DHT22;23794;48.234;8.344;2022-09-09T06:38:56;14.90;99.90
37972;DHT22;23794;48.234;8.344;2022-09-09T06:41:26;14.90;99.90
37972;DHT22;23794;48.234;8.344;2022-09-09T06:43:55;14.90;99.90
37972;DHT22;23794;48.234;8.344;2022-09-09T06:46:33;15.10;99.90
37972;DHT22;23794;48.234;8.344;2022-09-09T06:49:00;15.40;99.90
37972;DHT22;23794;48.234;8.344;2022-09-09T06:51:34;15.50;99.90
37972;DHT22;23794;48.234;8.344;2022-09-09T06:54:03;15.60;99.90
37972;DHT22;23794;48.234;8.344;2022-09-09T06:56:36;15.70;99.90
37972;DHT22;23794;48.234;8.344;2022-09-09T06:59:08;15.50;99.90
37972;DHT22;23794;48.234;8.344;2022-09-09T07:01:38;15.40;99.90
37972;DHT22;23794;48.234;8.344;2022-09-09T07:04:10;15.40;99.90
37972;DHT22;23794;48.234;8.344;2022-09-09T07:06:42;15.30;99.90
37972;DHT22;23794;48.234;8.344;2022-09-09T07:09:14;15.40;99.90
37972;DHT22;23794;48.234;8.344;2022-09-09T07:11:47;15.60;99.90
37972;DHT22;23794;48.234;8.344;2022-09-09T07:14:16;15.80;99.90
37972;DHT22;23794;48.234;8.344;2022-09-09T07:16:46;16.00;99.90
37972;DHT22;23794;48.234;8.344;2022-09-09T07:19:15;16.10;99.90
37972;DHT22;23794;48.234;8.344;2022-09-09T07:21:44;16.00;99.90
37972;DHT22;23794;48.234;8.344;2022-09-09T07:24:14;16.10;99.90
37972;DHT22;23794;48.234;8.344;2022-09-09T07:26:42;16.30;99.90
37972;DHT22;23794;48.234;8.344;2022-09-09T07:29:10;16.30;99.90
37972;DHT22;23794;48.234;8.344;2022-09-09T07:31:46;16.40;99.90
37972;DHT22;23794;48.234;8.344;2022-09-09T07:34:17;16.50;99.90
37972;DHT22;23794;48.234;8.344;2022-09-09T07:36:45;16.60;99.90
37972;DHT22;23794;48.234;8.344;2022-09-09T07:39:14;16.60;99.90
37972;DHT22;23794;48.234;8.344;2022-09-09T07:41:47;16.50;99.90
37972;DHT22;23794;48.234;8.344;2022-09-09T07:44:19;16.30;99.90
37972;DHT22;23794;48.234;8.344;2022-09-09T07:46:51;16.30;99.90
37972;DHT22;23794;48.234;8.344;2022-09-09T07:49:22;16.20;99.90
37972;DHT22;23794;48.234;8.344;2022-09-09T07:51:58;16.20;99.90
37972;DHT22;23794;48.234;8.344;2022-09-09T07:54:26;16.10;99.90
37972;DHT22;23794;48.234;8.344;2022-09-09T07:56:53;16.10;99.90
37972;DHT22;23794;48.234;8.344;2022-09-09T07:59:23;16.30;99.90
37972;DHT22;23794;48.234;8.344;2022-09-09T08:01:52;16.50;99.90
37972;DHT22;23794;48.234;8.344;2022-09-09T08:04:26;16.60;99.90
37972;DHT22;23794;48.234;8.344;2022-09-09T08:06:59;16.80;99.90
37972;DHT22;23794;48.234;8.344;2022-09-09T08:09:28;17.00;99.90
37972;DHT22;23794;48.234;8.344;2022-09-09T08:12:05;17.20;99.90
37972;DHT22;23794;48.234;8.344;2022-09-09T08:14:35;17.40;99.90
37972;DHT22;23794;48.234;8.344;2022-09-09T08:17:02;17.50;99.90
37972;DHT22;23794;48.234;8.344;2022-09-09T08:19:31;17.50;99.90
37972;DHT22;23794;48.234;8.344;2022-09-09T08:22:01;17.70;99.90
37972;DHT22;23794;48.234;8.344;2022-09-09T08:24:30;17.70;99.90
37972;DHT22;23794;48.234;8.344;2022-09-09T08:26:57;17.50;99.90
37972;DHT22;23794;48.234;8.344;2022-09-09T08:29:24;17.60;99.90
37972;DHT22;23794;48.234;8.344;2022-09-09T08:31:55;17.70;99.90
37972;DHT22;23794;48.234;8.344;2022-09-09T08:34:25;17.70;99.90
37972;DHT22;23794;48.234;8.344;2022-09-09T08:36:55;17.80;99.90
37972;DHT22;23794;48.234;8.344;2022-09-09T08:39:28;17.90;99.90
37972;DHT22;23794;48.234;8.344;2022-09-09T08:55:45;17.70;99.90
37972;DHT22;23794;48.234;8.344;2022-09-09T09:11:38;17.60;99.90
37972;DHT22;23794;48.234;8.344;2022-09-09T09:14:21;17.80;99.90
37972;DHT22;23794;48.234;8.344;2022-09-09T09:19:29;18.10;99.90
37972;DHT22;23794;48.234;8.344;2022-09-09T09:25:22;18.00;99.90
37972;DHT22;23794;48.234;8.344;2022-09-09T09:28:13;17.90;99.90
37972;DHT22;23794;48.234;8.344;2022-09-09T09:30:53;18.10;99.90
37972;DHT22;23794;48.234;8.344;2022-09-09T09:35:58;18.40;99.90
37972;DHT22;23794;48.234;8.344;2022-09-09T09:38:28;18.60;99.90
37972;DHT22;23794;48.234;8.344;2022-09-09T09:41:15;18.60;99.90
37972;DHT22;23794;48.234;8.344;2022-09-09T09:43:42;18.50;99.90
37972;DHT22;23794;48.234;8.344;2022-09-09T09:46:21;18.30;99.90
37972;DHT22;23794;48.234;8.344;2022-09-09T09:49:05;18.40;99.90
37972;DHT22;23794;48.234;8.344;2022-09-09T09:51:34;18.60;99.90
37972;DHT22;23794;48.234;8.344;2022-09-09T09:56:42;19.00;99.90
37972;DHT22;23794;48.234;8.344;2022-09-09T10:02:22;19.80;99.90
37972;DHT22;23794;48.234;8.344;2022-09-09T10:07:35;20.00;99.90
37972;DHT22;23794;48.234;8.344;2022-09-09T10:10:04;19.80;99.90
37972;DHT22;23794;48.234;8.344;2022-09-09T10:12:41;19.50;99.90
37972;DHT22;23794;48.234;8.344;2022-09-09T10:15:23;19.50;99.90
37972;DHT22;23794;48.234;8.344;2022-09-09T10:21:13;19.50;99.90
37972;DHT22;23794;48.234;8.344;2022-09-09T10:24:05;19.40;99.90
37972;DHT22;23794;48.234;8.344;2022-09-09T10:32:06;20.00;99.80
37972;DHT22;23794;48.234;8.344;2022-09-09T10:34:55;20.10;99.90
37972;DHT22;23794;48.234;8.344;2022-09-09T10:54:56;21.60;99.20
37972;DHT22;23794;48.234;8.344;2022-09-09T11:00:13;22.20;98.70
37972;DHT22;23794;48.234;8.344;2022-09-09T11:02:41;22.20;97.10
37972;DHT22;23794;48.234;8.344;2022-09-09T11:05:21;21.90;97.30
37972;DHT22;23794;48.234;8.344;2022-09-09T11:07:59;22.00;98.10
37972;DHT22;23794;48.234;8.344;2022-09-09T11:10:41;22.00;98.30
37972;DHT22;23794;48.234;8.344;2022-09-09T11:13:20;21.80;98.70
37972;DHT22;23794;48.234;8.344;2022-09-09T11:16:00;21.60;99.10
37972;DHT22;23794;48.234;8.344;2022-09-09T11:18:31;21.40;99.70
37972;DHT22;23794;48.234;8.344;2022-09-09T11:21:09;20.90;99.30
37972;DHT22;23794;48.234;8.344;2022-09-09T11:23:40;19.70;99.90
37972;DHT22;23794;48.234;8.344;2022-09-09T11:26:16;18.90;99.90
37972;DHT22;23794;48.234;8.344;2022-09-09T11:37:17;17.70;99.90
37972;DHT22;23794;48.234;8.344;2022-09-09T11:39:57;18.00;99.90
37972;DHT22;23794;48.234;8.344;2022-09-09T11:42:27;18.60;99.90
37972;DHT22;23794;48.234;8.344;2022-09-09T11:44:53;19.10;99.90
37972;DHT22;23794;48.234;8.344;2022-09-09T11:47:27;19.50;99.90
37972;DHT22;23794;48.234;8.344;2022-09-09T11:50:31;19.60;99.90
37972;DHT22;23794;48.234;8.344;2022-09-09T11:55:40;19.90;99.90
37972;DHT22;23794;48.234;8.344;2022-09-09T12:00:38;20.30;99.90
37972;DHT22;23794;48.234;8.344;2022-09-09T12:03:33;20.50;99.90
37972;DHT22;23794;48.234;8.344;2022-09-09T12:06:18;20.60;99.90
37972;DHT22;23794;48.234;8.344;2022-09-09T12:08:51;20.70;99.90
37972;DHT22;23794;48.234;8.344;2022-09-09T12:11:28;20.80;99.90
37972;DHT22;23794;48.234;8.344;2022-09-09T12:13:56;20.80;99.90
37972;DHT22;23794;48.234;8.344;2022-09-09T12:16:35;20.60;99.90
37972;DHT22;23794;48.234;8.344;2022-09-09T12:19:16;20.60;99.90
37972;DHT22;23794;48.234;8.344;2022-09-09T12:24:49;20.80;99.90
37972;DHT22;23794;48.234;8.344;2022-09-09T12:27:24;20.90;99.90
37972;DHT22;23794;48.234;8.344;2022-09-09T12:30:07;21.20;99.90
37972;DHT22;23794;48.234;8.344;2022-09-09T12:32:34;21.20;99.90
37972;DHT22;23794;48.234;8.344;2022-09-09T12:35:20;21.10;99.90
37972;DHT22;23794;48.234;8.344;2022-09-09T12:38:00;20.90;99.90
37972;DHT22;23794;48.234;8.344;2022-09-09T12:40:32;21.00;99.90
37972;DHT22;23794;48.234;8.344;2022-09-09T12:43:16;20.60;99.90
37972;DHT22;23794;48.234;8.344;2022-09-09T12:45:43;20.90;99.90
37972;DHT22;23794;48.234;8.344;2022-09-09T12:48:12;21.00;99.90
37972;DHT22;23794;48.234;8.344;2022-09-09T12:50:48;21.20;99.90
37972;DHT22;23794;48.234;8.344;2022-09-09T12:53:20;20.80;99.90
37972;DHT22;23794;48.234;8.344;2022-09-09T12:55:56;20.10;99.90
37972;DHT22;23794;48.234;8.344;2022-09-09T12:58:23;19.50;99.90
37972;DHT22;23794;48.234;8.344;2022-09-09T13:00:53;19.20;99.90
37972;DHT22;23794;48.234;8.344;2022-09-09T13:03:24;19.40;99.90
37972;DHT22;23794;48.234;8.344;2022-09-09T13:05:52;19.90;99.90
37972;DHT22;23794;48.234;8.344;2022-09-09T13:08:20;20.30;99.90
37972;DHT22;23794;48.234;8.344;2022-09-09T13:10:50;20.40;99.90
37972;DHT22;23794;48.234;8.344;2022-09-09T13:13:39;20.50;99.90
37972;DHT22;23794;48.234;8.344;2022-09-09T13:16:24;20.90;99.90
37972;DHT22;23794;48.234;8.344;2022-09-09T13:18:52;21.00;99.90
37972;DHT22;23794;48.234;8.344;2022-09-09T13:21:19;21.10;99.90
37972;DHT22;23794;48.234;8.344;2022-09-09T13:23:57;21.10;99.90
37972;DHT22;23794;48.234;8.344;2022-09-09T13:26:26;21.10;99.90
37972;DHT22;23794;48.234;8.344;2022-09-09T13:28:54;20.70;99.90
37972;DHT22;23794;48.234;8.344;2022-09-09T13:31:29;20.80;99.90
37972;DHT22;23794;48.234;8.344;2022-09-09T13:33:56;21.00;99.90
37972;DHT22;23794;48.234;8.344;2022-09-09T13:36:31;21.10;99.90
37972;DHT22;23794;48.234;8.344;2022-09-09T13:39:01;21.20;99.90
37972;DHT22;23794;48.234;8.344;2022-09-09T13:41:32;21.20;99.90
37972;DHT22;23794;48.234;8.344;2022-09-09T13:44:01;21.60;99.90
37972;DHT22;23794;48.234;8.344;2022-09-09T13:49:20;21.00;99.90
37972;DHT22;23794;48.234;8.344;2022-09-09T13:51:49;21.10;99.90
37972;DHT22;23794;48.234;8.344;2022-09-09T13:54:18;21.30;99.90
37972;DHT22;23794;48.234;8.344;2022-09-09T13:56:46;21.40;99.90
37972;DHT22;23794;48.234;8.344;2022-09-09T13:59:18;21.30;99.90
37972;DHT22;23794;48.234;8.344;2022-09-09T14:01:48;21.50;99.90
37972;DHT22;23794;48.234;8.344;2022-09-09T14:04:19;21.80;98.70
37972;DHT22;23794;48.234;8.344;2022-09-09T14:06:50;21.90;98.60
37972;DHT22;23794;48.234;8.344;2022-09-09T14:09:17;21.90;98.40
37972;DHT22;23794;48.234;8.344;2022-09-09T14:11:45;22.10;98.60
37972;DHT22;23794;48.234;8.344;2022-09-09T14:14:20;21.50;98.20
37972;DHT22;23794;48.234;8.344;2022-09-09T14:16:47;20.70;99.60
37972;DHT22;23794;48.234;8.344;2022-09-09T14:19:13;19.70;99.90
37972;DHT22;23794;48.234;8.344;2022-09-09T14:21:40;18.90;99.90
37972;DHT22;23794;48.234;8.344;2022-09-09T14:24:07;18.50;99.90
37972;DHT22;23794;48.234;8.344;2022-09-09T14:26:34;18.10;99.90
37972;DHT22;23794;48.234;8.344;2022-09-09T14:29:01;18.00;99.90
37972;DHT22;23794;48.234;8.344;2022-09-09T14:31:28;18.10;99.90
37972;DHT22;23794;48.234;8.344;2022-09-09T14:33:55;18.20;99.90
37972;DHT22;23794;48.234;8.344;2022-09-09T14:36:22;18.10;99.90
37972;DHT22;23794;48.234;8.344;2022-09-09T14:38:49;18.10;99.90
37972;DHT22;23794;48.234;8.344;2022-09-09T14:41:18;17.70;99.90
37972;DHT22;23794;48.234;8.344;2022-09-09T14:43:49;17.60;99.90
37972;DHT22;23794;48.234;8.344;2022-09-09T14:46:18;17.40;99.90
37972;DHT22;23794;48.234;8.344;2022-09-09T14:48:45;17.50;99.90
37972;DHT22;23794;48.234;8.344;2022-09-09T14:51:17;17.60;99.90
37972;DHT22;23794;48.234;8.344;2022-09-09T14:53:46;17.80;99.90
37972;DHT22;23794;48.234;8.344;2022-09-09T14:56:15;18.20;99.90
37972;DHT22;23794;48.234;8.344;2022-09-09T14:58:43;18.70;99.90
37972;DHT22;23794;48.234;8.344;2022-09-09T15:01:12;19.10;99.90
37972;DHT22;23794;48.234;8.344;2022-09-09T15:03:40;19.20;99.90
37972;DHT22;23794;48.234;8.344;2022-09-09T15:06:12;18.80;99.90
37972;DHT22;23794;48.234;8.344;2022-09-09T15:08:44;18.40;99.90
37972;DHT22;23794;48.234;8.344;2022-09-09T15:11:12;18.10;99.90
37972;DHT22;23794;48.234;8.344;2022-09-09T15:13:41;18.10;99.90
37972;DHT22;23794;48.234;8.344;2022-09-09T15:16:14;18.20;99.90
37972;DHT22;23794;48.234;8.344;2022-09-09T15:18:42;18.20;99.90
37972;DHT22;23794;48.234;8.344;2022-09-09T15:21:10;18.20;99.90
37972;DHT22;23794;48.234;8.344;2022-09-09T15:23:37;18.10;99.90
37972;DHT22;23794;48.234;8.344;2022-09-09T15:26:05;18.20;99.90
37972;DHT22;23794;48.234;8.344;2022-09-09T15:28:33;18.10;99.90
37972;DHT22;23794;48.234;8.344;2022-09-09T15:31:11;18.00;99.90
37972;DHT22;23794;48.234;8.344;2022-09-09T15:33:41;17.80;99.90
37972;DHT22;23794;48.234;8.344;2022-09-09T15:36:16;17.70;99.90
37972;DHT22;23794;48.234;8.344;2022-09-09T15:38:46;17.70;99.90
37972;DHT22;23794;48.234;8.344;2022-09-09T15:41:13;17.70;99.90
37972;DHT22;23794;48.234;8.344;2022-09-09T15:43:45;17.50;99.90
37972;DHT22;23794;48.234;8.344;2022-09-09T15:48:50;17.20;99.90
37972;DHT22;23794;48.234;8.344;2022-09-09T15:51:21;17.30;99.90
37972;DHT22;23794;48.234;8.344;2022-09-09T15:54:09;17.40;99.90
37972;DHT22;23794;48.234;8.344;2022-09-09T15:56:36;17.40;99.90
37972;DHT22;23794;48.234;8.344;2022-09-09T15:59:03;17.50;99.90
37972;DHT22;23794;48.234;8.344;2022-09-09T16:01:30;17.40;99.90
37972;DHT22;23794;48.234;8.344;2022-09-09T16:03:58;17.30;99.90
37972;DHT22;23794;48.234;8.344;2022-09-09T16:06:28;17.30;99.90
37972;DHT22;23794;48.234;8.344;2022-09-09T16:08:56;17.30;99.90
37972;DHT22;23794;48.234;8.344;2022-09-09T16:11:33;17.30;99.90
37972;DHT22;23794;48.234;8.344;2022-09-09T16:14:00;17.40;99.90
37972;DHT22;23794;48.234;8.344;2022-09-09T16:16:29;17.40;99.90
37972;DHT22;23794;48.234;8.344;2022-09-09T16:18:58;17.40;99.90
37972;DHT22;23794;48.234;8.344;2022-09-09T16:21:28;17.30;99.90
37972;DHT22;23794;48.234;8.344;2022-09-09T16:23:57;17.30;99.90
37972;DHT22;23794;48.234;8.344;2022-09-09T16:26:26;17.30;99.90
37972;DHT22;23794;48.234;8.344;2022-09-09T16:28:54;17.20;99.90
37972;DHT22;23794;48.234;8.344;2022-09-09T16:31:22;17.30;99.90
37972;DHT22;23794;48.234;8.344;2022-09-09T16:33:51;17.30;99.90
37972;DHT22;23794;48.234;8.344;2022-09-09T16:36:25;17.20;99.90
37972;DHT22;23794;48.234;8.344;2022-09-09T16:38:58;17.10;99.90
37972;DHT22;23794;48.234;8.344;2022-09-09T16:41:29;17.20;99.90
37972;DHT22;23794;48.234;8.344;2022-09-09T16:43:58;17.10;99.90
37972;DHT22;23794;48.234;8.344;2022-09-09T16:46:27;17.10;99.90
37972;DHT22;23794;48.234;8.344;2022-09-09T16:48:59;17.10;99.90
37972;DHT22;23794;48.234;8.344;2022-09-09T16:51:31;17.10;99.90
37972;DHT22;23794;48.234;8.344;2022-09-09T16:54:01;17.00;99.90
37972;DHT22;23794;48.234;8.344;2022-09-09T16:56:30;17.10;99.90
37972;DHT22;23794;48.234;8.344;2022-09-09T16:59:01;17.00;99.90
37972;DHT22;23794;48.234;8.344;2022-09-09T17:01:30;17.00;99.90
37972;DHT22;23794;48.234;8.344;2022-09-09T17:04:01;16.90;99.90
37972;DHT22;23794;48.234;8.344;2022-09-09T17:06:30;16.90;99.90
37972;DHT22;23794;48.234;8.344;2022-09-09T17:08:58;16.80;99.90
37972;DHT22;23794;48.234;8.344;2022-09-09T17:11:27;16.70;99.90
37972;DHT22;23794;48.234;8.344;2022-09-09T17:13:56;16.60;99.90
37972;DHT22;23794;48.234;8.344;2022-09-09T17:16:25;16.50;99.90
37972;DHT22;23794;48.234;8.344;2022-09-09T17:18:54;16.20;99.90
37972;DHT22;23794;48.234;8.344;2022-09-09T17:21:26;16.10;99.90
37972;DHT22;23794;48.234;8.344;2022-09-09T17:23:53;15.90;99.90
37972;DHT22;23794;48.234;8.344;2022-09-09T17:26:22;15.70;99.90
37972;DHT22;23794;48.234;8.344;2022-09-09T17:28:49;15.60;99.90
37972;DHT22;23794;48.234;8.344;2022-09-09T17:31:17;15.50;99.90
37972;DHT22;23794;48.234;8.344;2022-09-09T17:33:47;15.50;99.90
37972;DHT22;23794;48.234;8.344;2022-09-09T17:36:20;15.40;99.90
37972;DHT22;23794;48.234;8.344;2022-09-09T17:38:48;15.40;99.90
37972;DHT22;23794;48.234;8.344;2022-09-09T17:41:18;15.40;99.90
37972;DHT22;23794;48.234;8.344;2022-09-09T17:43:45;15.50;99.90
37972;DHT22;23794;48.234;8.344;2022-09-09T17:46:14;15.40;99.90
37972;DHT22;23794;48.234;8.344;2022-09-09T17:48:43;15.30;99.90
37972;DHT22;23794;48.234;8.344;2022-09-09T17:51:13;15.30;99.90
37972;DHT22;23794;48.234;8.344;2022-09-09T17:53:43;15.20;99.90
37972;DHT22;23794;48.234;8.344;2022-09-09T17:56:11;15.10;99.90
37972;DHT22;23794;48.234;8.344;2022-09-09T17:58:39;15.10;99.90